Overcast
Mostly cloudy and cirrus
Mostly cloudy and cirrus
Overcast
Overcast
Overcast
Overcast
Overcast
Partly cloudy and few cirrus
(°F)
64°
64°
63°
63°
62°
62°
61°
61°
60°
60°
59°
59°
59°
59°
58°
58°
58°
58°
(°F)
56°
55°
55°
54°
54°
54°
53°
53°
52°
NNW
NNW
NW
NW
WNW
NW
NW
NW
WNW
(mph)
13-25
12-21
11-19
9-16
9-15
8-14
8-15
8-15
9-15
(in)
0
0
0
0
0
0
0
0
0
(%)
0
0
0
0
0
0
0
0
0

Sun elevation

/ 11.2°
sun-icon
UV 2
02:58
20:33
Waning gibbous moon (225°)
23:03
06:24

METAR for 55.61°N 49.28°E (UWKD)

Time Conditions Temperature/
Dewpoint
Wind Visibility Weather Clouds Pressure Change Raw
VFR 64.4°F / 44.6°F 350º 12kt 9700m - Broken Clouds 5000ft 1003 No Significant change UWKD 251500Z 35006MPS 9999 BKN050CB 18/07 Q1003 R29/CLRD70 NOSIG RMK QFE741/0989
VFR 64.4°F / 44.6°F 340º 12kt 9700m - Clouds and Visibility OK 1003 No Significant change UWKD 251430Z 34006MPS CAVOK 18/07 Q1003 R29/CLRD70 NOSIG RMK QFE741/0989
VFR 64.4°F / 44.6°F 340º variable 310º to 010º 16kt 9700m - Clouds and Visibility OK 1003 No Significant change UWKD 251400Z 34008MPS 310V010 CAVOK 18/07 Q1003 R29/CLRD70 NOSIG RMK QFE741/0988
VFR 64.4°F / 44.6°F 340º 14kt 9700m - Clouds and Visibility OK 1003 No Significant change UWKD 251330Z 34007MPS CAVOK 18/07 Q1003 R29/CLRD70 NOSIG RMK QFE741/0989
VFR 66.2°F / 44.6°F 350º 16kt Gust 25kt 9700m - Clouds and Visibility OK 1003 No Significant change UWKD 251300Z 35008G13MPS CAVOK 19/07 Q1003 R29/70D NOSIG RMK QFE741/0988
VFR 64.4°F / 42.8°F 350º 14kt Gust 23kt 9700m - Clouds and Visibility OK 1003 No Significant change UWKD 251230Z 35007G12MPS CAVOK 18/06 Q1003 R29/CLRD70 NOSIG RMK QFE741/0988
VFR 64.4°F / 41°F 330º variable 300º to 360º 16kt 9700m - Clouds and Visibility OK 1003 No Significant change UWKD 251200Z 33008MPS 300V360 CAVOK 18/05 Q1003 R29/CLRD70 NOSIG RMK QFE741/0988
VFR 62.6°F / 42.8°F 320º variable 300º to 360º 17kt 9700m - Clouds and Visibility OK 1003 No Significant change UWKD 251130Z 32009MPS 300V360 CAVOK 17/06 Q1003 R29/CLRD70 NOSIG RMK QFE741/0988
VFR 64.4°F / 41°F 320º variable 300º to 360º 14kt 9700m - Clouds and Visibility OK 1003 No Significant change UWKD 251100Z 32007MPS 300V360 CAVOK 18/05 Q1003 R29/70D NOSIG RMK QFE741/0988
VFR 64.4°F / 42.8°F 330º variable 300º to 360º 16kt 9700m - Scattered Clouds 4300ft 1003 No Significant change UWKD 251030Z 33008MPS 300V360 9999 SCT043 18/06 Q1003 R29/CLRD70 NOSIG RMK QFE741/0988
VFR 62.6°F / 41°F 350º 14kt 9700m - Scattered Clouds 4300ft 1003 No Significant change UWKD 251000Z 35007MPS 9999 SCT043 17/05 Q1003 R29/70D NOSIG RMK QFE741/0988
VFR 62.6°F / 41°F 330º variable 300º to 360º 14kt 9700m - Broken Clouds 4300ft 1003 No Significant change UWKD 250930Z 33007MPS 300V360 9999 BKN043 17/05 Q1003 R29/CLRD70 NOSIG RMK QFE741/0988
VFR 60.8°F / 42.8°F 310º 16kt 9700m - Broken Clouds 4300ft 1003 No Significant change UWKD 250900Z 31008MPS 9999 BKN043 16/06 Q1003 R29/70D NOSIG RMK QFE741/0988
VFR 60.8°F / 41°F 320º 16kt 9700m - Clouds and Visibility OK 1003 No Significant change UWKD 250830Z 32008MPS CAVOK 16/05 Q1003 R29/CLRD70 NOSIG RMK QFE741/0988
VFR 60.8°F / 42.8°F 310º variable 280º to 350º 12kt 9700m - Broken Clouds 4700ft 1003 No Significant change UWKD 250800Z 31006MPS 280V350 9999 BKN047 16/06 Q1003 R29/CLRD70 NOSIG RMK QFE741/0988
VFR 59°F / 41°F 320º 16kt 9700m - Broken Clouds 4300ft 1003 No Significant change UWKD 250730Z 32008MPS 9999 BKN043 15/05 Q1003 R29/CLRD70 NOSIG RMK QFE741/0988
VFR 59°F / 39.2°F 330º 14kt 9700m - Broken Clouds 4300ft 1003 No Significant change UWKD 250700Z 33007MPS 9999 BKN043 15/04 Q1003 R29/CLRD70 NOSIG RMK QFE741/0988
VFR 57.2°F / 39.2°F 330º variable 300º to 360º 14kt 9700m - Clouds and Visibility OK 1002 No Significant change UWKD 250630Z 33007MPS 300V360 CAVOK 14/04 Q1002 R29/CLRD70 NOSIG RMK QFE741/0988
VFR 57.2°F / 41°F 320º 14kt Gust 23kt 9700m - Clouds and Visibility OK 1002 No Significant change UWKD 250600Z 32007G12MPS CAVOK 14/05 Q1002 R29/CLRD70 NOSIG RMK QFE741/0988
VFR 57.2°F / 42.8°F 320º 17kt 9700m - Clouds and Visibility OK 1002 No Significant change UWKD 250530Z 32009MPS CAVOK 14/06 Q1002 R29/CLRD70 NOSIG RMK QFE741/0988
VFR 57.2°F / 42.8°F 330º 14kt 9700m - Clouds and Visibility OK 1003 No Significant change UWKD 250500Z 33007MPS CAVOK 14/06 Q1003 R29/CLRD70 NOSIG RMK QFE741/0988
VFR 57.2°F / 42.8°F 320º 14kt 9700m - Clouds and Visibility OK 1003 No Significant change UWKD 250430Z 32007MPS CAVOK 14/06 Q1003 R29/CLRD70 NOSIG RMK QFE741/0988
VFR 53.6°F / 42.8°F 320º 14kt 9700m - Clouds and Visibility OK 1003 No Significant change UWKD 250400Z 32007MPS CAVOK 12/06 Q1003 R29/CLRD70 NOSIG RMK QFE741/0988
VFR 53.6°F / 44.6°F 330º 14kt 9700m - Clouds and Visibility OK 1003 No Significant change UWKD 250330Z 33007MPS CAVOK 12/07 Q1003 R29/CLRD70 NOSIG RMK QFE741/0988

VFR

64.4°F / 44.6°F

[More]
Wind 350º 12kt
Visibility 9700m
Weather -
Clouds Broken Clouds 5000ft
Pressure 1003
Change No Significant change
Raw UWKD 251500Z 35006MPS 9999 BKN050CB 18/07 Q1003 R29/CLRD70 NOSIG RMK QFE741/0989

VFR

64.4°F / 44.6°F

[More]
Wind 340º 12kt
Visibility 9700m
Weather -
Clouds Clouds and Visibility OK
Pressure 1003
Change No Significant change
Raw UWKD 251430Z 34006MPS CAVOK 18/07 Q1003 R29/CLRD70 NOSIG RMK QFE741/0989

VFR

64.4°F / 44.6°F

[More]
Wind 340º variable 310º to 010º 16kt
Visibility 9700m
Weather -
Clouds Clouds and Visibility OK
Pressure 1003
Change No Significant change
Raw UWKD 251400Z 34008MPS 310V010 CAVOK 18/07 Q1003 R29/CLRD70 NOSIG RMK QFE741/0988

VFR

64.4°F / 44.6°F

[More]
Wind 340º 14kt
Visibility 9700m
Weather -
Clouds Clouds and Visibility OK
Pressure 1003
Change No Significant change
Raw UWKD 251330Z 34007MPS CAVOK 18/07 Q1003 R29/CLRD70 NOSIG RMK QFE741/0989

VFR

66.2°F / 44.6°F

[More]
Wind 350º 16kt Gust 25kt
Visibility 9700m
Weather -
Clouds Clouds and Visibility OK
Pressure 1003
Change No Significant change
Raw UWKD 251300Z 35008G13MPS CAVOK 19/07 Q1003 R29/70D NOSIG RMK QFE741/0988

VFR

64.4°F / 42.8°F

[More]
Wind 350º 14kt Gust 23kt
Visibility 9700m
Weather -
Clouds Clouds and Visibility OK
Pressure 1003
Change No Significant change
Raw UWKD 251230Z 35007G12MPS CAVOK 18/06 Q1003 R29/CLRD70 NOSIG RMK QFE741/0988

VFR

64.4°F / 41°F

[More]
Wind 330º variable 300º to 360º 16kt
Visibility 9700m
Weather -
Clouds Clouds and Visibility OK
Pressure 1003
Change No Significant change
Raw UWKD 251200Z 33008MPS 300V360 CAVOK 18/05 Q1003 R29/CLRD70 NOSIG RMK QFE741/0988

VFR

62.6°F / 42.8°F

[More]
Wind 320º variable 300º to 360º 17kt
Visibility 9700m
Weather -
Clouds Clouds and Visibility OK
Pressure 1003
Change No Significant change
Raw UWKD 251130Z 32009MPS 300V360 CAVOK 17/06 Q1003 R29/CLRD70 NOSIG RMK QFE741/0988

VFR

64.4°F / 41°F

[More]
Wind 320º variable 300º to 360º 14kt
Visibility 9700m
Weather -
Clouds Clouds and Visibility OK
Pressure 1003
Change No Significant change
Raw UWKD 251100Z 32007MPS 300V360 CAVOK 18/05 Q1003 R29/70D NOSIG RMK QFE741/0988

VFR

64.4°F / 42.8°F

[More]
Wind 330º variable 300º to 360º 16kt
Visibility 9700m
Weather -
Clouds Scattered Clouds 4300ft
Pressure 1003
Change No Significant change
Raw UWKD 251030Z 33008MPS 300V360 9999 SCT043 18/06 Q1003 R29/CLRD70 NOSIG RMK QFE741/0988

VFR

62.6°F / 41°F

[More]
Wind 350º 14kt
Visibility 9700m
Weather -
Clouds Scattered Clouds 4300ft
Pressure 1003
Change No Significant change
Raw UWKD 251000Z 35007MPS 9999 SCT043 17/05 Q1003 R29/70D NOSIG RMK QFE741/0988

VFR

62.6°F / 41°F

[More]
Wind 330º variable 300º to 360º 14kt
Visibility 9700m
Weather -
Clouds Broken Clouds 4300ft
Pressure 1003
Change No Significant change
Raw UWKD 250930Z 33007MPS 300V360 9999 BKN043 17/05 Q1003 R29/CLRD70 NOSIG RMK QFE741/0988

VFR

60.8°F / 42.8°F

[More]
Wind 310º 16kt
Visibility 9700m
Weather -
Clouds Broken Clouds 4300ft
Pressure 1003
Change No Significant change
Raw UWKD 250900Z 31008MPS 9999 BKN043 16/06 Q1003 R29/70D NOSIG RMK QFE741/0988

VFR

60.8°F / 41°F

[More]
Wind 320º 16kt
Visibility 9700m
Weather -
Clouds Clouds and Visibility OK
Pressure 1003
Change No Significant change
Raw UWKD 250830Z 32008MPS CAVOK 16/05 Q1003 R29/CLRD70 NOSIG RMK QFE741/0988

VFR

60.8°F / 42.8°F

[More]
Wind 310º variable 280º to 350º 12kt
Visibility 9700m
Weather -
Clouds Broken Clouds 4700ft
Pressure 1003
Change No Significant change
Raw UWKD 250800Z 31006MPS 280V350 9999 BKN047 16/06 Q1003 R29/CLRD70 NOSIG RMK QFE741/0988

VFR

59°F / 41°F

[More]
Wind 320º 16kt
Visibility 9700m
Weather -
Clouds Broken Clouds 4300ft
Pressure 1003
Change No Significant change
Raw UWKD 250730Z 32008MPS 9999 BKN043 15/05 Q1003 R29/CLRD70 NOSIG RMK QFE741/0988

VFR

59°F / 39.2°F

[More]
Wind 330º 14kt
Visibility 9700m
Weather -
Clouds Broken Clouds 4300ft
Pressure 1003
Change No Significant change
Raw UWKD 250700Z 33007MPS 9999 BKN043 15/04 Q1003 R29/CLRD70 NOSIG RMK QFE741/0988

VFR

57.2°F / 39.2°F

[More]
Wind 330º variable 300º to 360º 14kt
Visibility 9700m
Weather -
Clouds Clouds and Visibility OK
Pressure 1002
Change No Significant change
Raw UWKD 250630Z 33007MPS 300V360 CAVOK 14/04 Q1002 R29/CLRD70 NOSIG RMK QFE741/0988

VFR

57.2°F / 41°F

[More]
Wind 320º 14kt Gust 23kt
Visibility 9700m
Weather -
Clouds Clouds and Visibility OK
Pressure 1002
Change No Significant change
Raw UWKD 250600Z 32007G12MPS CAVOK 14/05 Q1002 R29/CLRD70 NOSIG RMK QFE741/0988

VFR

57.2°F / 42.8°F

[More]
Wind 320º 17kt
Visibility 9700m
Weather -
Clouds Clouds and Visibility OK
Pressure 1002
Change No Significant change
Raw UWKD 250530Z 32009MPS CAVOK 14/06 Q1002 R29/CLRD70 NOSIG RMK QFE741/0988

VFR

57.2°F / 42.8°F

[More]
Wind 330º 14kt
Visibility 9700m
Weather -
Clouds Clouds and Visibility OK
Pressure 1003
Change No Significant change
Raw UWKD 250500Z 33007MPS CAVOK 14/06 Q1003 R29/CLRD70 NOSIG RMK QFE741/0988

VFR

57.2°F / 42.8°F

[More]
Wind 320º 14kt
Visibility 9700m
Weather -
Clouds Clouds and Visibility OK
Pressure 1003
Change No Significant change
Raw UWKD 250430Z 32007MPS CAVOK 14/06 Q1003 R29/CLRD70 NOSIG RMK QFE741/0988

VFR

53.6°F / 42.8°F

[More]
Wind 320º 14kt
Visibility 9700m
Weather -
Clouds Clouds and Visibility OK
Pressure 1003
Change No Significant change
Raw UWKD 250400Z 32007MPS CAVOK 12/06 Q1003 R29/CLRD70 NOSIG RMK QFE741/0988

VFR

53.6°F / 44.6°F

[More]
Wind 330º 14kt
Visibility 9700m
Weather -
Clouds Clouds and Visibility OK
Pressure 1003
Change No Significant change
Raw UWKD 250330Z 33007MPS CAVOK 12/07 Q1003 R29/CLRD70 NOSIG RMK QFE741/0988

TAF for 55.61°N 49.28°E (UWKD)

From till


Maximum Temperature 20ºC on . Minimum Temperature 11ºC on .
From till Wind 330º 12kt. Gust 25kt. Visibility 9700m. Broken Clouds 2000ft.

Raw: TAF AMD UWKD 251504Z 2515/2615 33006G13MPS 9999 BKN020 TX20/2611Z TN11/2601Z

Radar and precipitation nowcast for 55.61°N 49.28°E

Drizzle
Light
Moderate
Heavy
Very Heavy
Hail

The location marker is placed on 55.61°N 49.28°E. This animation shows the precipitation radar for the selected time range, as well as a 2h forecast. Orange crosses indicate lightning. Data provided by nowcast.de (available in USA, Europe, Australia). Drizzle or light snow fall might be invisible for the radar. Precipitation intensity is colour coded, ranging from turquoise to red.

Current satellite and rain images for 55.61°N 49.28°E

The location marker is placed on 55.61°N 49.28°E. [More]

The real-time satellite image combines visible light during daytime with infrared radiation during nighttime. At night, the image is not dark as infrared radiation can detect temperature differences. Unfortunately, low clouds and fog are difficult to distinguish from ground temperatures and thus can be almost invisible during the night. Meteosat satellite images for Europe are updated in real-time every 5 minutes. GOES-16/GOES-17 (North & South America) and Himawari (Asia) images update every 10 minutes.

Precipitation is estimated from radar and satellites. Precipitation estimates from satellites are less accurate at night than during daytime.

© 2024 meteoblue, NOAA Satellites GOES-16 and EUMETSAT. Lightning data provided by nowcast.

Back to top
×
Hey there,
seems like you are using an ad blocker.

Advertising is essential to maintain our free website with unique detail and accuracy.

Please whitelist www.meteoblue.com on your ad blocker or consider buying one of our products:

Already have a subscription?
Then please login.